Time;durP1;ratioP1;P1;durP2;ratioP2;P2;SDS_P1;SDS_P2;PMS_P1;PMS_P2;Temp;Humidity;BMP_temperature;BMP_pressure;BME280_temperature;BME280_humidity;BME280_pressure;Samples;Min_cycle;Max_cycle;Signal;HPM_P1;HPM_P2
2022/10/27 00:01:18;;;;;;;;;;;;;;;;;;4952599;28;19918;-54
2022/10/27 00:03:43;;;;;;;;;;;;;;;;;;4954276;28;19919;-53
2022/10/27 00:06:09;;;;;;;;;;;;;;;;;;4953122;28;19922;-54
2022/10/27 00:08:34;;;;;;;;;;;;;;;;;;4954997;28;19918;-54
2022/10/27 00:11:01;;;;;;;;;;;;;;;;;;4956958;28;21554;-53
2022/10/27 00:13:26;;;;;;;;;;;;;;;;;;4961744;28;19918;-54
2022/10/27 00:15:55;;;;;;;;;;;;;;;;;;4961233;28;19925;-54
2022/10/27 00:18:20;;;;;;;;;;;;;;;;;;4969755;28;20212;-53
2022/10/27 00:20:55;;;;;;;;;;;;;;;;;;4967642;28;19960;-53
2022/10/27 00:23:20;;;;;;;;;;;;;;;;;;4963091;28;19919;-54
2022/10/27 00:25:50;;;;;;;;;;;;;;;;;;4981831;28;19923;-53
2022/10/27 00:28:16;;;;;;;;;;;;;;;;;;4959749;28;19923;-54
2022/10/27 00:30:41;;;;;;;;;;;;;;;;;;4958033;28;19971;-53
2022/10/27 00:33:06;;;;;;;;;;;;;;;;;;4964278;28;19925;-53
2022/10/27 00:35:34;;;;;;;;;;;;;;;;;;4960677;28;19919;-54
2022/10/27 00:38:00;;;;;;;;;;;;;;;;;;4958520;28;19918;-54
2022/10/27 00:40:25;;;;;;;;;;;;;;;;;;4964364;28;20434;-53
2022/10/27 00:42:50;;;;;;;;;;;;;;;;;;4985245;28;20068;-54
2022/10/27 00:45:15;;;;;;;;;;;;;;;;;;4956613;28;20254;-54
2022/10/27 00:47:41;;;;;;;;;;;;;;;;;;4959195;28;19971;-54
2022/10/27 00:50:12;;;;;;;;;;;;;;;;;;4957803;28;20303;-54
2022/10/27 00:52:40;;;;;;;;;;;;;;;;;;4965198;28;19925;-53
2022/10/27 00:55:08;;;;;;;;;;;;;;;;;;4954149;28;20146;-53
2022/10/27 00:57:34;;;;;;;;;;;;;;;;;;4962651;28;19929;-54
2022/10/27 01:00:01;;;;;;;;;;;;;;;;;;4962564;28;19922;-54
2022/10/27 01:02:26;;;;;;;;;;;;;;;;;;4954331;28;19918;-54
2022/10/27 01:04:53;;;;;;;;;;;;;;;;;;4961551;28;19922;-54
2022/10/27 01:07:19;;;;;;;;;;;;;;;;;;4959248;28;19921;-54
2022/10/27 01:09:45;;;;;;;;;;;;;;;;;;4966586;28;19926;-54
2022/10/27 01:12:10;;;;;;;;;;;;;;;;;;4957573;28;20022;-54
2022/10/27 01:14:36;;;;;;;;;;;;;;;;;;4963299;28;19925;-53
2022/10/27 01:17:01;;;;;;;;;;;;;;;;;;4964176;28;19953;-54
2022/10/27 01:19:38;;;;;;;;;;;;;;;;;;4963410;28;19922;-54
2022/10/27 01:22:04;;;;;;;;;;;;;;;;;;4958750;28;19964;-54
2022/10/27 01:24:50;;;;;;;;;;;;;;;;;;4961647;28;19962;-54
2022/10/27 01:27:21;;;;;;;;;;;;;;;;;;4957631;28;19918;-54
2022/10/27 01:29:49;;;;;;;;;;;;;;;;;;4964073;28;19964;-53
2022/10/27 01:32:15;;;;;;;;;;;;;;;;;;4964849;28;20387;-54
2022/10/27 01:34:43;;;;;;;;;;;;;;;;;;4962454;28;19994;-54
2022/10/27 01:37:14;;;;;;;;;;;;;;;;;;4960762;28;20380;-54
2022/10/27 01:39:55;;;;;;;;;;;;;;;;;;4958591;28;19922;-54
2022/10/27 01:42:39;;;;;;;;;;;;;;;;;;4961324;28;19972;-54
2022/10/27 01:45:06;;;;;;;;;;;;;;;;;;4962148;28;19922;-54
2022/10/27 01:47:32;;;;;;;;;;;;;;;;;;4954309;28;19958;-54
2022/10/27 01:49:57;;;;;;;;;;;;;;;;;;4953417;28;19961;-54
2022/10/27 01:52:40;;;;;;;;;;;;;;;;;;4955634;28;20323;-54
2022/10/27 01:55:07;;;;;;;;;;;;;;;;;;4955850;28;20380;-54
2022/10/27 01:57:38;;;;;;;;;;;;;;;;;;4961777;28;20318;-54
2022/10/27 02:00:04;;;;;;;;;;;;;;;;;;4955858;28;19969;-54
2022/10/27 02:02:37;;;;;;;;;;;;;;;;;;4958297;28;20008;-54
2022/10/27 02:05:05;;;;;;;;;;;;;;;;;;4953398;28;19927;-54
2022/10/27 02:07:38;;;;;;;;;;;;;;;;;;4959050;28;19918;-54
2022/10/27 02:10:07;;;;;;;;;;;;;;;;;;4974061;28;20401;-54
2022/10/27 02:12:33;;;;;;;;;;;;;;;;;;4954799;28;20021;-54
2022/10/27 02:15:00;;;;;;;;;;;;;;;;;;4962113;28;19918;-54
2022/10/27 02:17:30;;;;;;;;;;;;;;;;;;4974855;28;19940;-53
2022/10/27 02:19:57;;;;;;;;;;;;;;;;;;4969903;28;19923;-54
2022/10/27 02:22:24;;;;;;;;;;;;;;;;;;4959199;28;19918;-53
2022/10/27 02:24:50;;;;;;;;;;;;;;;;;;4959847;28;19958;-52
2022/10/27 02:27:35;;;;;;;;;;;;;;;;;;4964398;28;20357;-53
2022/10/27 02:30:02;;;;;;;;;;;;;;;;;;4961106;28;19927;-53
2022/10/27 02:32:28;;;;;;;;;;;;;;;;;;4955739;28;19933;-53
2022/10/27 02:34:55;;;;;;;;;;;;;;;;;;4958803;28;19938;-53
2022/10/27 02:37:25;;;;;;;;;;;;;;;;;;4979055;28;20417;-53
2022/10/27 02:39:50;;;;;;;;;;;;;;;;;;4956780;28;19938;-53
2022/10/27 02:42:15;;;;;;;;;;;;;;;;;;4957499;28;20009;-53
2022/10/27 02:44:40;;;;;;;;;;;;;;;;;;4961526;28;19953;-54
2022/10/27 02:47:06;;;;;;;;;;;;;;;;;;4956132;28;19918;-53
2022/10/27 02:49:31;;;;;;;;;;;;;;;;;;4954930;28;19923;-54
2022/10/27 02:51:56;;;;;;;;;;;;;;;;;;4955150;28;19925;-53
2022/10/27 02:54:22;;;;;;;;;;;;;;;;;;4959142;28;19919;-53
2022/10/27 02:56:47;;;;;;;;;;;;;;;;;;4959842;28;19922;-54
2022/10/27 02:59:12;;;;;;;;;;;;;;;;;;4963662;28;19926;-53
2022/10/27 03:01:37;;;;;;;;;;;;;;;;;;4956037;28;20342;-54
2022/10/27 03:04:03;;;;;;;;;;;;;;;;;;4961030;28;19971;-53
2022/10/27 03:06:28;;;;;;;;;;;;;;;;;;4963473;28;19918;-54
2022/10/27 03:08:53;;;;;;;;;;;;;;;;;;4959296;28;20335;-54
2022/10/27 03:11:19;;;;;;;;;;;;;;;;;;4962977;28;20364;-54
2022/10/27 03:13:44;;;;;;;;;;;;;;;;;;4964298;28;19918;-54
2022/10/27 03:16:09;;;;;;;;;;;;;;;;;;4956144;28;20383;-54
2022/10/27 03:18:34;;;;;;;;;;;;;;;;;;4956923;28;19945;-53
2022/10/27 03:21:00;;;;;;;;;;;;;;;;;;4963555;28;19951;-53
2022/10/27 03:23:25;;;;;;;;;;;;;;;;;;4961935;28;19922;-54
2022/10/27 03:25:50;;;;;;;;;;;;;;;;;;4957363;28;20422;-53
2022/10/27 03:28:16;;;;;;;;;;;;;;;;;;4983696;28;19918;-53
2022/10/27 03:30:41;;;;;;;;;;;;;;;;;;4960057;28;19919;-53
2022/10/27 03:33:06;;;;;;;;;;;;;;;;;;4953937;28;19962;-53
2022/10/27 03:35:32;;;;;;;;;;;;;;;;;;4955856;28;19958;-55
2022/10/27 03:37:58;;;;;;;;;;;;;;;;;;4959951;28;19918;-53
2022/10/27 03:40:23;;;;;;;;;;;;;;;;;;4951337;28;20292;-53
2022/10/27 03:42:48;;;;;;;;;;;;;;;;;;4954239;28;19918;-53
2022/10/27 03:45:14;;;;;;;;;;;;;;;;;;4953251;28;20376;-55
2022/10/27 03:47:39;;;;;;;;;;;;;;;;;;4961730;28;20004;-54
2022/10/27 03:50:04;;;;;;;;;;;;;;;;;;4954182;28;19998;-55
2022/10/27 03:52:30;;;;;;;;;;;;;;;;;;4955275;28;19929;-55
2022/10/27 03:54:55;;;;;;;;;;;;;;;;;;4953668;28;19930;-54
2022/10/27 03:57:20;;;;;;;;;;;;;;;;;;4959496;28;19973;-55
2022/10/27 03:59:45;;;;;;;;;;;;;;;;;;4970593;28;19929;-53
2022/10/27 04:02:12;;;;;;;;;;;;;;;;;;4967738;28;20445;-55
2022/10/27 04:04:37;;;;;;;;;;;;;;;;;;4960803;28;19929;-54
2022/10/27 04:07:02;;;;;;;;;;;;;;;;;;4967116;28;20292;-54
2022/10/27 04:09:28;;;;;;;;;;;;;;;;;;4957762;28;19922;-52
2022/10/27 04:11:55;;;;;;;;;;;;;;;;;;4961713;28;20484;-54
2022/10/27 04:14:20;;;;;;;;;;;;;;;;;;4954012;28;19972;-55
2022/10/27 04:16:50;;;;;;;;;;;;;;;;;;4953726;28;19923;-54
2022/10/27 04:19:15;;;;;;;;;;;;;;;;;;4966891;28;20025;-52
2022/10/27 04:21:41;;;;;;;;;;;;;;;;;;4966225;28;19998;-54
2022/10/27 04:24:06;;;;;;;;;;;;;;;;;;4963319;28;20265;-55
2022/10/27 04:26:31;;;;;;;;;;;;;;;;;;4966135;28;20497;-55
2022/10/27 04:28:57;;;;;;;;;;;;;;;;;;4962179;28;19918;-55
2022/10/27 04:31:22;;;;;;;;;;;;;;;;;;4962163;28;19922;-56
2022/10/27 04:33:47;;;;;;;;;;;;;;;;;;4962416;28;20407;-58
2022/10/27 04:36:12;;;;;;;;;;;;;;;;;;4968869;28;19918;-56
2022/10/27 04:38:38;;;;;;;;;;;;;;;;;;4962590;28;19972;-56
2022/10/27 04:41:03;;;;;;;;;;;;;;;;;;4965969;28;20426;-56
2022/10/27 04:43:28;;;;;;;;;;;;;;;;;;4961572;28;19925;-57
2022/10/27 04:45:54;;;;;;;;;;;;;;;;;;4959467;28;19933;-57
2022/10/27 04:48:19;;;;;;;;;;;;;;;;;;4955203;28;19919;-57
2022/10/27 04:50:44;;;;;;;;;;;;;;;;;;4957165;28;19926;-56
2022/10/27 04:53:10;;;;;;;;;;;;;;;;;;4961432;28;19926;-54
2022/10/27 04:55:35;;;;;;;;;;;;;;;;;;4965044;28;20023;-54
2022/10/27 04:58:00;;;;;;;;;;;;;;;;;;4970896;28;20401;-57
2022/10/27 05:00:26;;;;;;;;;;;;;;;;;;4965239;28;19929;-50
2022/10/27 05:02:55;;;;;;;;;;;;;;;;;;4966320;28;19918;-51
2022/10/27 05:05:21;;;;;;;;;;;;;;;;;;4962715;28;19922;-58
2022/10/27 05:07:52;;;;;;;;;;;;;;;;;;4965782;28;19972;-58
2022/10/27 05:10:17;;;;;;;;;;;;;;;;;;4968094;28;20383;-58
2022/10/27 05:12:43;;;;;;;;;;;;;;;;;;4963193;28;19923;-57
2022/10/27 05:15:08;;;;;;;;;;;;;;;;;;4969847;28;19965;-57
2022/10/27 05:17:34;;;;;;;;;;;;;;;;;;4964294;28;20295;-57
2022/10/27 05:19:59;;;;;;;;;;;;;;;;;;4966340;28;19930;-57
2022/10/27 05:22:25;;;;;;;;;;;;;;;;;;4962857;28;19922;-56
2022/10/27 05:24:50;;;;;;;;;;;;;;;;;;4964649;28;20277;-57
2022/10/27 05:27:15;;;;;;;;;;;;;;;;;;4961323;28;19925;-56
2022/10/27 05:29:40;;;;;;;;;;;;;;;;;;4998012;28;19921;-57
2022/10/27 05:32:06;;;;;;;;;;;;;;;;;;4978331;28;19914;-56
2022/10/27 05:34:31;;;;;;;;;;;;;;;;;;4982128;28;19957;-56
2022/10/27 05:36:56;;;;;;;;;;;;;;;;;;4962873;28;20319;-56
2022/10/27 05:39:21;;;;;;;;;;;;;;;;;;4966216;28;19929;-57
2022/10/27 05:41:47;;;;;;;;;;;;;;;;;;4966264;28;19933;-56
2022/10/27 05:44:12;;;;;;;;;;;;;;;;;;4972296;28;19945;-57
2022/10/27 05:46:37;;;;;;;;;;;;;;;;;;4963567;28;19922;-56
2022/10/27 05:49:03;;;;;;;;;;;;;;;;;;4959259;28;19922;-56
2022/10/27 05:51:28;;;;;;;;;;;;;;;;;;4964739;28;19957;-56
2022/10/27 05:53:55;;;;;;;;;;;;;;;;;;4968931;28;19937;-57
2022/10/27 05:56:20;;;;;;;;;;;;;;;;;;4969064;28;20379;-57
2022/10/27 05:58:46;;;;;;;;;;;;;;;;;;4968482;28;19914;-57
2022/10/27 06:01:11;;;;;;;;;;;;;;;;;;4968655;28;19918;-57
2022/10/27 06:03:36;;;;;;;;;;;;;;;;;;4966011;28;19922;-57
2022/10/27 06:06:02;;;;;;;;;;;;;;;;;;4967961;28;19914;-57
2022/10/27 06:08:28;;;;;;;;;;;;;;;;;;4967256;28;20162;-57
2022/10/27 06:10:53;;;;;;;;;;;;;;;;;;4967163;28;20384;-57
2022/10/27 06:13:18;;;;;;;;;;;;;;;;;;4965016;28;20004;-57
2022/10/27 06:15:43;;;;;;;;;;;;;;;;;;4964070;28;19915;-56
2022/10/27 06:18:09;;;;;;;;;;;;;;;;;;4969943;28;19914;-56
2022/10/27 06:20:34;;;;;;;;;;;;;;;;;;4969268;28;20517;-56
2022/10/27 06:22:59;;;;;;;;;;;;;;;;;;4964849;28;19914;-56
2022/10/27 06:25:25;;;;;;;;;;;;;;;;;;4961019;28;19937;-56
2022/10/27 06:27:50;;;;;;;;;;;;;;;;;;4966266;28;19922;-57
2022/10/27 06:30:15;;;;;;;;;;;;;;;;;;4965160;28;19937;-57
2022/10/27 06:32:41;;;;;;;;;;;;;;;;;;4964358;28;19918;-56
2022/10/27 06:35:07;;;;;;;;;;;;;;;;;;4962160;28;20009;-57
2022/10/27 06:37:32;;;;;;;;;;;;;;;;;;4967770;28;19914;-58
2022/10/27 06:39:58;;;;;;;;;;;;;;;;;;4964769;28;20509;-57
2022/10/27 06:42:23;;;;;;;;;;;;;;;;;;4964124;28;19929;-57
2022/10/27 06:44:49;;;;;;;;;;;;;;;;;;4963382;28;19914;-57
2022/10/27 06:47:14;;;;;;;;;;;;;;;;;;4961899;28;19968;-57
2022/10/27 06:49:39;;;;;;;;;;;;;;;;;;4965185;28;19915;-57
2022/10/27 06:52:04;;;;;;;;;;;;;;;;;;4968490;28;19921;-57
2022/10/27 06:54:30;;;;;;;;;;;;;;;;;;4968670;28;19914;-57
2022/10/27 06:56:55;;;;;;;;;;;;;;;;;;4967821;28;19914;-57
2022/10/27 06:59:21;;;;;;;;;;;;;;;;;;4968920;28;19918;-57
2022/10/27 07:01:46;;;;;;;;;;;;;;;;;;4967431;28;19918;-57
2022/10/27 07:04:12;;;;;;;;;;;;;;;;;;4967628;28;20369;-57
2022/10/27 07:06:37;;;;;;;;;;;;;;;;;;4964214;28;19968;-57
2022/10/27 07:09:02;;;;;;;;;;;;;;;;;;4967460;28;19929;-57
2022/10/27 07:11:27;;;;;;;;;;;;;;;;;;4965691;28;20071;-57
2022/10/27 07:13:53;;;;;;;;;;;;;;;;;;4965884;28;19962;-57
2022/10/27 07:16:18;;;;;;;;;;;;;;;;;;4963662;28;20013;-56
2022/10/27 07:18:44;;;;;;;;;;;;;;;;;;4965528;28;19919;-57
2022/10/27 07:21:09;;;;;;;;;;;;;;;;;;4968278;28;20395;-57
2022/10/27 07:23:34;;;;;;;;;;;;;;;;;;4967446;28;19915;-57
2022/10/27 07:25:59;;;;;;;;;;;;;;;;;;4966405;28;20403;-57
2022/10/27 07:28:25;;;;;;;;;;;;;;;;;;4964066;28;19922;-57
2022/10/27 07:30:52;;;;;;;;;;;;;;;;;;4972322;28;19960;-57
2022/10/27 07:33:17;;;;;;;;;;;;;;;;;;4969828;28;19914;-57
2022/10/27 07:35:46;;;;;;;;;;;;;;;;;;4967224;28;19925;-58
2022/10/27 07:38:12;;;;;;;;;;;;;;;;;;4964348;28;19919;-58
2022/10/27 07:40:37;;;;;;;;;;;;;;;;;;4968301;28;19945;-58
2022/10/27 07:43:03;;;;;;;;;;;;;;;;;;4975935;28;20028;-57
2022/10/27 07:45:28;;;;;;;;;;;;;;;;;;4970501;28;19914;-58
2022/10/27 07:47:54;;;;;;;;;;;;;;;;;;4960981;28;19985;-57
2022/10/27 07:50:21;;;;;;;;;;;;;;;;;;4967006;28;19925;-58
2022/10/27 07:52:50;;;;;;;;;;;;;;;;;;4969770;28;19953;-58
2022/10/27 07:55:16;;;;;;;;;;;;;;;;;;4967118;28;19925;-57
2022/10/27 07:57:42;;;;;;;;;;;;;;;;;;4968144;28;20316;-58
2022/10/27 08:00:09;;;;;;;;;;;;;;;;;;4968972;28;19944;-57
2022/10/27 08:02:34;;;;;;;;;;;;;;;;;;4968740;28;19918;-57
2022/10/27 08:04:59;;;;;;;;;;;;;;;;;;4968661;28;20450;-58
2022/10/27 08:07:25;;;;;;;;;;;;;;;;;;4969124;28;19918;-57
2022/10/27 08:09:50;;;;;;;;;;;;;;;;;;4970151;28;20277;-57
2022/10/27 08:12:15;;;;;;;;;;;;;;;;;;4970654;28;19932;-57
2022/10/27 08:14:40;;;;;;;;;;;;;;;;;;4967676;28;19925;-57
2022/10/27 08:17:06;;;;;;;;;;;;;;;;;;4970031;28;19919;-57
2022/10/27 08:19:31;;;;;;;;;;;;;;;;;;4967492;28;20451;-57
2022/10/27 08:21:56;;;;;;;;;;;;;;;;;;4966305;28;19925;-57
2022/10/27 08:24:22;;;;;;;;;;;;;;;;;;4967895;28;19943;-57
2022/10/27 08:26:47;;;;;;;;;;;;;;;;;;4963817;28;19926;-57
2022/10/27 08:29:12;;;;;;;;;;;;;;;;;;4970205;28;20291;-57
2022/10/27 08:31:37;;;;;;;;;;;;;;;;;;4966276;28;19918;-56
2022/10/27 08:34:03;;;;;;;;;;;;;;;;;;4971433;28;19925;-57
2022/10/27 08:36:28;;;;;;;;;;;;;;;;;;4966126;28;20017;-57
2022/10/27 08:38:53;;;;;;;;;;;;;;;;;;4964986;28;20306;-58
2022/10/27 08:41:22;;;;;;;;;;;;;;;;;;4963239;28;19924;-58
2022/10/27 08:43:56;;;;;;;;;;;;;;;;;;4965571;28;19951;-58
2022/10/27 08:46:33;;;;;;;;;;;;;;;;;;4968399;28;20265;-58
2022/10/27 08:49:01;;;;;;;;;;;;;;;;;;4966899;28;20000;-57
2022/10/27 08:51:29;;;;;;;;;;;;;;;;;;4970653;28;19924;-58
2022/10/27 08:53:55;;;;;;;;;;;;;;;;;;4970498;28;20394;-58
2022/10/27 08:56:21;;;;;;;;;;;;;;;;;;4969727;28;19961;-58
2022/10/27 08:58:47;;;;;;;;;;;;;;;;;;4967827;28;19922;-58
2022/10/27 09:01:18;;;;;;;;;;;;;;;;;;4968040;28;19918;-57
2022/10/27 09:03:52;;;;;;;;;;;;;;;;;;4968668;28;19925;-58
2022/10/27 09:06:20;;;;;;;;;;;;;;;;;;4966761;28;20501;-58
2022/10/27 09:09:04;;;;;;;;;;;;;;;;;;4971499;28;19919;-57
2022/10/27 09:11:38;;;;;;;;;;;;;;;;;;4965864;28;19921;-57
2022/10/27 09:14:06;;;;;;;;;;;;;;;;;;4965697;28;19953;-58
2022/10/27 09:16:34;;;;;;;;;;;;;;;;;;4962896;28;20337;-58
2022/10/27 09:19:01;;;;;;;;;;;;;;;;;;4966633;28;19956;-57
2022/10/27 09:21:27;;;;;;;;;;;;;;;;;;4960046;28;20441;-57
2022/10/27 09:23:55;;;;;;;;;;;;;;;;;;4968760;28;19926;-57
2022/10/27 09:26:25;;;;;;;;;;;;;;;;;;4960727;28;19919;-57
2022/10/27 09:28:52;;;;;;;;;;;;;;;;;;4965399;28;20653;-57
2022/10/27 09:31:33;;;;;;;;;;;;;;;;;;4962434;28;20430;-57
2022/10/27 09:34:02;;;;;;;;;;;;;;;;;;4964015;28;19918;-57
2022/10/27 09:36:28;;;;;;;;;;;;;;;;;;4961772;28;19919;-57
2022/10/27 09:38:53;;;;;;;;;;;;;;;;;;4965351;28;19933;-57
2022/10/27 09:41:18;;;;;;;;;;;;;;;;;;4963581;28;19934;-57
2022/10/27 09:43:43;;;;;;;;;;;;;;;;;;4964524;28;19971;-57
2022/10/27 09:46:12;;;;;;;;;;;;;;;;;;4965902;28;19918;-57
2022/10/27 09:48:37;;;;;;;;;;;;;;;;;;4966434;28;20392;-57
2022/10/27 09:51:05;;;;;;;;;;;;;;;;;;4968699;28;20309;-57
2022/10/27 09:53:39;;;;;;;;;;;;;;;;;;4963844;28;19918;-57
2022/10/27 09:56:05;;;;;;;;;;;;;;;;;;4966116;28;19922;-57
2022/10/27 09:58:31;;;;;;;;;;;;;;;;;;4965900;28;20384;-57
2022/10/27 10:00:57;;;;;;;;;;;;;;;;;;4966015;28;19969;-57
2022/10/27 10:03:22;;;;;;;;;;;;;;;;;;4963556;28;19965;-57
2022/10/27 10:06:02;;;;;;;;;;;;;;;;;;4962029;28;20396;-57
2022/10/27 10:08:28;;;;;;;;;;;;;;;;;;4963020;28;20440;-58
2022/10/27 10:10:55;;;;;;;;;;;;;;;;;;4969444;28;19930;-57
2022/10/27 10:13:21;;;;;;;;;;;;;;;;;;4966017;28;20319;-57
2022/10/27 10:15:47;;;;;;;;;;;;;;;;;;4963646;28;19919;-58
2022/10/27 10:18:22;;;;;;;;;;;;;;;;;;4963714;28;19914;-58
2022/10/27 10:20:54;;;;;;;;;;;;;;;;;;4969422;28;19922;-58
2022/10/27 10:23:19;;;;;;;;;;;;;;;;;;4962329;28;19918;-59
2022/10/27 10:25:48;;;;;;;;;;;;;;;;;;4965915;28;19925;-59
2022/10/27 10:28:29;;;;;;;;;;;;;;;;;;4965004;28;19924;-58
2022/10/27 10:30:56;;;;;;;;;;;;;;;;;;4960528;28;19918;-59
2022/10/27 10:33:26;;;;;;;;;;;;;;;;;;4965248;28;20412;-59
2022/10/27 10:35:52;;;;;;;;;;;;;;;;;;4962189;28;19971;-59
2022/10/27 10:38:23;;;;;;;;;;;;;;;;;;4967394;28;19922;-59
2022/10/27 10:41:19;;;;;;;;;;;;;;;;;;4961775;28;19979;-59
2022/10/27 10:43:44;;;;;;;;;;;;;;;;;;4956167;28;19929;-59
2022/10/27 10:46:21;;;;;;;;;;;;;;;;;;4967294;28;19918;-59
2022/10/27 10:48:51;;;;;;;;;;;;;;;;;;4968243;28;20009;-59
2022/10/27 10:51:27;;;;;;;;;;;;;;;;;;4969177;28;19953;-59
2022/10/27 10:53:56;;;;;;;;;;;;;;;;;;4967162;28;19922;-59
2022/10/27 10:56:23;;;;;;;;;;;;;;;;;;4967920;28;19918;-59
2022/10/27 10:58:51;;;;;;;;;;;;;;;;;;4966153;28;20465;-59
2022/10/27 11:01:16;;;;;;;;;;;;;;;;;;4968785;28;19921;-59
2022/10/27 11:03:44;;;;;;;;;;;;;;;;;;4967936;28;20354;-59
2022/10/27 11:06:18;;;;;;;;;;;;;;;;;;4968868;28;20154;-59
2022/10/27 11:08:43;;;;;;;;;;;;;;;;;;4963725;28;19972;-59
2022/10/27 11:11:15;;;;;;;;;;;;;;;;;;4968906;28;19922;-59
2022/10/27 11:13:44;;;;;;;;;;;;;;;;;;4963237;28;19918;-59
2022/10/27 11:16:10;;;;;;;;;;;;;;;;;;4959233;28;19929;-59
2022/10/27 11:18:44;;;;;;;;;;;;;;;;;;4958144;28;19919;-59
2022/10/27 11:21:24;;;;;;;;;;;;;;;;;;4959529;28;20040;-59
2022/10/27 11:23:52;;;;;;;;;;;;;;;;;;4967735;28;19963;-59
2022/10/27 11:26:20;;;;;;;;;;;;;;;;;;4961479;28;20068;-59
2022/10/27 11:28:45;;;;;;;;;;;;;;;;;;4968741;28;20009;-59
2022/10/27 11:31:20;;;;;;;;;;;;;;;;;;4964145;28;19929;-59
2022/10/27 11:34:04;;;;;;;;;;;;;;;;;;4963484;28;19918;-59
2022/10/27 11:36:36;;;;;;;;;;;;;;;;;;4960155;28;20002;-57
2022/10/27 11:39:05;;;;;;;;;;;;;;;;;;4958902;28;19929;-58
2022/10/27 11:41:35;;;;;;;;;;;;;;;;;;4958421;28;19932;-58
2022/10/27 11:44:05;;;;;;;;;;;;;;;;;;4968119;28;19956;-58
2022/10/27 11:46:37;;;;;;;;;;;;;;;;;;4963949;28;19971;-58
2022/10/27 11:49:14;;;;;;;;;;;;;;;;;;4957995;28;19922;-58
2022/10/27 11:51:44;;;;;;;;;;;;;;;;;;4965987;28;20331;-59
2022/10/27 11:54:09;;;;;;;;;;;;;;;;;;4966798;28;19918;-58
2022/10/27 11:56:41;;;;;;;;;;;;;;;;;;4959225;28;20013;-58
2022/10/27 11:59:24;;;;;;;;;;;;;;;;;;4961023;28;19922;-58
2022/10/27 12:01:59;;;;;;;;;;;;;;;;;;4966249;28;19925;-59
2022/10/27 12:04:36;;;;;;;;;;;;;;;;;;4961398;28;19945;-59
2022/10/27 12:07:13;;;;;;;;;;;;;;;;;;4971911;28;19941;-58
2022/10/27 12:09:44;;;;;;;;;;;;;;;;;;4967791;28;20412;-58
2022/10/27 12:12:22;;;;;;;;;;;;;;;;;;4970572;28;19918;-59
2022/10/27 12:14:48;;;;;;;;;;;;;;;;;;4968592;28;19922;-59
2022/10/27 12:17:17;;;;;;;;;;;;;;;;;;4961953;28;20594;-58
2022/10/27 12:19:43;;;;;;;;;;;;;;;;;;4962981;28;20015;-59
2022/10/27 12:22:19;;;;;;;;;;;;;;;;;;4961879;28;19918;-59
2022/10/27 12:24:50;;;;;;;;;;;;;;;;;;4969140;28;19922;-59
2022/10/27 12:27:21;;;;;;;;;;;;;;;;;;4969075;28;19915;-58
2022/10/27 12:29:48;;;;;;;;;;;;;;;;;;4969130;28;19917;-59
2022/10/27 12:32:18;;;;;;;;;;;;;;;;;;4965433;28;19922;-58
2022/10/27 12:34:48;;;;;;;;;;;;;;;;;;4966405;28;20404;-59
2022/10/27 12:37:18;;;;;;;;;;;;;;;;;;4967867;28;20018;-59
2022/10/27 12:39:43;;;;;;;;;;;;;;;;;;4965936;28;19922;-59
2022/10/27 12:42:09;;;;;;;;;;;;;;;;;;4962366;28;20012;-58
2022/10/27 12:44:49;;;;;;;;;;;;;;;;;;4970994;28;19918;-58
2022/10/27 12:47:33;;;;;;;;;;;;;;;;;;4964513;28;19923;-58
2022/10/27 12:50:05;;;;;;;;;;;;;;;;;;4969990;28;19922;-58
2022/10/27 12:52:33;;;;;;;;;;;;;;;;;;4965300;28;20437;-58
2022/10/27 12:55:14;;;;;;;;;;;;;;;;;;4964669;28;19996;-58
2022/10/27 12:57:45;;;;;;;;;;;;;;;;;;4967777;28;20016;-58
2022/10/27 13:00:12;;;;;;;;;;;;;;;;;;4967322;28;19929;-58
2022/10/27 13:02:50;;;;;;;;;;;;;;;;;;4969484;28;19918;-58
2022/10/27 13:05:29;;;;;;;;;;;;;;;;;;4966696;28;19919;-58
2022/10/27 13:08:13;;;;;;;;;;;;;;;;;;4966988;28;19918;-59
2022/10/27 13:10:57;;;;;;;;;;;;;;;;;;4964652;28;20368;-59
2022/10/27 13:13:25;;;;;;;;;;;;;;;;;;4962382;28;19919;-58
2022/10/27 13:16:00;;;;;;;;;;;;;;;;;;4964490;28;19918;-58
2022/10/27 13:18:43;;;;;;;;;;;;;;;;;;4956605;28;20342;-58
2022/10/27 13:21:09;;;;;;;;;;;;;;;;;;4959207;28;19922;-59
2022/10/27 13:23:54;;;;;;;;;;;;;;;;;;4966587;28;19918;-59
2022/10/27 13:26:35;;;;;;;;;;;;;;;;;;4958702;28;19923;-58
2022/10/27 13:29:13;;;;;;;;;;;;;;;;;;4959290;28;19926;-58
2022/10/27 13:31:39;;;;;;;;;;;;;;;;;;4968127;28;19918;-58
2022/10/27 13:34:06;;;;;;;;;;;;;;;;;;4962586;28;20419;-58
2022/10/27 13:36:32;;;;;;;;;;;;;;;;;;4957650;28;20347;-58
2022/10/27 13:39:12;;;;;;;;;;;;;;;;;;4965178;28;19918;-58
2022/10/27 13:41:48;;;;;;;;;;;;;;;;;;4963854;28;19961;-58
2022/10/27 13:44:30;;;;;;;;;;;;;;;;;;4963504;28;19918;-59
2022/10/27 13:47:01;;;;;;;;;;;;;;;;;;4969392;28;19925;-58
2022/10/27 13:49:41;;;;;;;;;;;;;;;;;;4964798;28;20015;-58
2022/10/27 13:52:10;;;;;;;;;;;;;;;;;;4964517;28;19918;-58
2022/10/27 13:54:47;;;;;;;;;;;;;;;;;;4964622;28;19947;-58
2022/10/27 13:57:24;;;;;;;;;;;;;;;;;;4969943;28;19918;-58
2022/10/27 13:59:50;;;;;;;;;;;;;;;;;;4968357;28;20130;-59
2022/10/27 14:02:20;;;;;;;;;;;;;;;;;;4968775;28;20402;-58
2022/10/27 14:04:48;;;;;;;;;;;;;;;;;;4969322;28;20056;-58
2022/10/27 14:07:14;;;;;;;;;;;;;;;;;;4964916;28;19968;-59
2022/10/27 14:09:44;;;;;;;;;;;;;;;;;;4963642;28;20008;-58
2022/10/27 14:12:26;;;;;;;;;;;;;;;;;;4964813;28;20009;-58
2022/10/27 14:15:01;;;;;;;;;;;;;;;;;;4967569;28;19922;-58
2022/10/27 14:17:28;;;;;;;;;;;;;;;;;;4965189;28;19918;-58
2022/10/27 14:19:53;;;;;;;;;;;;;;;;;;4965680;28;19925;-58
2022/10/27 14:22:25;;;;;;;;;;;;;;;;;;4965913;28;20284;-58
2022/10/27 14:24:54;;;;;;;;;;;;;;;;;;4965706;28;20296;-58
2022/10/27 14:27:20;;;;;;;;;;;;;;;;;;4962413;28;19914;-58
2022/10/27 14:29:46;;;;;;;;;;;;;;;;;;4965817;28;20008;-58
2022/10/27 14:32:21;;;;;;;;;;;;;;;;;;4969007;28;20000;-58
2022/10/27 14:34:47;;;;;;;;;;;;;;;;;;4962813;28;19976;-58
2022/10/27 14:37:22;;;;;;;;;;;;;;;;;;4961218;28;20455;-58
2022/10/27 14:39:50;;;;;;;;;;;;;;;;;;4962187;28;20450;-59
2022/10/27 14:42:18;;;;;;;;;;;;;;;;;;4961307;28;19928;-58
2022/10/27 14:44:47;;;;;;;;;;;;;;;;;;4976228;28;19914;-58
2022/10/27 14:47:14;;;;;;;;;;;;;;;;;;4959600;28;19925;-58
2022/10/27 14:49:42;;;;;;;;;;;;;;;;;;4962560;28;19918;-58
2022/10/27 14:52:12;;;;;;;;;;;;;;;;;;4965488;28;19930;-58
2022/10/27 14:54:37;;;;;;;;;;;;;;;;;;4960664;28;19918;-58
2022/10/27 14:57:21;;;;;;;;;;;;;;;;;;4966284;28;19924;-58
2022/10/27 14:59:47;;;;;;;;;;;;;;;;;;4966749;28;19963;-58
2022/10/27 15:02:12;;;;;;;;;;;;;;;;;;4965492;28;19989;-58
2022/10/27 15:04:37;;;;;;;;;;;;;;;;;;4965910;28;20031;-58
2022/10/27 15:07:03;;;;;;;;;;;;;;;;;;4966054;28;20912;-58
2022/10/27 15:09:32;;;;;;;;;;;;;;;;;;4965623;28;19915;-58
2022/10/27 15:11:59;;;;;;;;;;;;;;;;;;4964173;28;20435;-58
2022/10/27 15:14:26;;;;;;;;;;;;;;;;;;4956759;28;19923;-58
2022/10/27 15:16:52;;;;;;;;;;;;;;;;;;4966108;28;19926;-58
2022/10/27 15:19:18;;;;;;;;;;;;;;;;;;4960496;28;19923;-58
2022/10/27 15:21:44;;;;;;;;;;;;;;;;;;4965492;28;20014;-58
2022/10/27 15:24:10;;;;;;;;;;;;;;;;;;4961927;28;19961;-58
2022/10/27 15:26:35;;;;;;;;;;;;;;;;;;4956052;28;19919;-58
2022/10/27 15:29:02;;;;;;;;;;;;;;;;;;4963598;28;19918;-58
2022/10/27 15:31:28;;;;;;;;;;;;;;;;;;4960338;28;19949;-58
2022/10/27 15:33:57;;;;;;;;;;;;;;;;;;4962112;28;19973;-58
2022/10/27 15:36:23;;;;;;;;;;;;;;;;;;4963735;28;20287;-58
2022/10/27 15:38:49;;;;;;;;;;;;;;;;;;4961152;28;19925;-58
2022/10/27 15:41:25;;;;;;;;;;;;;;;;;;4966093;28;19967;-58
2022/10/27 15:43:52;;;;;;;;;;;;;;;;;;4971308;28;20005;-58
2022/10/27 15:46:29;;;;;;;;;;;;;;;;;;4965593;28;19940;-58
2022/10/27 15:49:01;;;;;;;;;;;;;;;;;;4962903;28;19926;-58
2022/10/27 15:51:46;;;;;;;;;;;;;;;;;;4967222;28;19918;-58
2022/10/27 15:54:21;;;;;;;;;;;;;;;;;;4968661;28;19941;-58
2022/10/27 15:56:51;;;;;;;;;;;;;;;;;;4970397;28;20388;-58
2022/10/27 15:59:18;;;;;;;;;;;;;;;;;;4969307;28;19918;-58
2022/10/27 16:01:45;;;;;;;;;;;;;;;;;;4966387;28;20418;-59
2022/10/27 16:04:36;;;;;;;;;;;;;;;;;;4971516;28;19917;-58
2022/10/27 16:07:10;;;;;;;;;;;;;;;;;;4964436;28;19918;-59
2022/10/27 16:09:38;;;;;;;;;;;;;;;;;;4964959;28;19921;-59
2022/10/27 16:12:10;;;;;;;;;;;;;;;;;;4966585;28;19954;-59
2022/10/27 16:14:35;;;;;;;;;;;;;;;;;;4969882;28;19933;-58
2022/10/27 16:17:00;;;;;;;;;;;;;;;;;;4969554;28;19914;-59
2022/10/27 16:19:26;;;;;;;;;;;;;;;;;;4970620;28;19962;-58
2022/10/27 16:21:51;;;;;;;;;;;;;;;;;;4964816;28;19971;-59
2022/10/27 16:24:20;;;;;;;;;;;;;;;;;;4965363;28;19925;-59
2022/10/27 16:26:48;;;;;;;;;;;;;;;;;;4964231;28;19954;-59
2022/10/27 16:29:15;;;;;;;;;;;;;;;;;;4966290;28;19936;-58
2022/10/27 16:31:41;;;;;;;;;;;;;;;;;;4966367;28;20314;-59
2022/10/27 16:34:10;;;;;;;;;;;;;;;;;;4970845;28;19950;-59
2022/10/27 16:36:36;;;;;;;;;;;;;;;;;;4964222;28;19918;-59
2022/10/27 16:39:01;;;;;;;;;;;;;;;;;;4961968;28;19918;-58
2022/10/27 16:41:27;;;;;;;;;;;;;;;;;;4967243;28;19922;-58
2022/10/27 16:43:52;;;;;;;;;;;;;;;;;;4964292;28;19925;-58
2022/10/27 16:46:17;;;;;;;;;;;;;;;;;;4970195;28;19957;-58
2022/10/27 16:48:42;;;;;;;;;;;;;;;;;;4969088;28;20000;-58
2022/10/27 16:51:12;;;;;;;;;;;;;;;;;;4968084;28;19918;-58
2022/10/27 16:53:37;;;;;;;;;;;;;;;;;;4965786;28;19988;-59